Time;durP1;ratioP1;P1;durP2;ratioP2;P2;SDS_P1;SDS_P2;PMS_P1;PMS_P2;Temp;Humidity;BMP_temperature;BMP_pressure;BME280_temperature;BME280_humidity;BME280_pressure;Samples;Min_cycle;Max_cycle;Signal;HPM_P1;HPM_P2
2023/10/11 00:02:57;;;;;;;6.77;3.27;;;;;;;13.21;71.68;94635.75;5102789;28;20089;-73
2023/10/11 00:05:24;;;;;;;9.98;3.40;;;;;;;13.16;71.67;94629.72;5102553;28;20031;-73
2023/10/11 00:07:54;;;;;;;7.47;3.35;;;;;;;13.11;71.73;94616.47;5103489;28;20020;-73
2023/10/11 00:10:22;;;;;;;5.68;2.92;;;;;;;13.10;71.21;94612.25;5106906;28;20024;-73
2023/10/11 00:12:50;;;;;;;10.02;4.85;;;;;;;13.03;71.10;94610.81;5106835;28;20032;-73
2023/10/11 00:18:44;;;;;;;3.72;2.13;;;;;;;12.90;71.87;94611.69;5084614;28;20049;-73
2023/10/11 00:21:11;;;;;;;6.40;3.00;;;;;;;12.87;71.76;94617.66;5105346;28;20020;-74
2023/10/11 00:23:50;;;;;;;5.57;2.22;;;;;;;12.81;70.90;94614.34;5105816;28;20031;-73
2023/10/11 00:26:18;;;;;;;3.80;1.80;;;;;;;12.78;70.31;94614.16;5106320;28;20019;-73
2023/10/11 00:28:44;;;;;;;6.05;2.33;;;;;;;12.71;70.29;94613.81;5088336;28;20252;-73
2023/10/11 00:31:18;;;;;;;7.20;2.70;;;;;;;12.66;70.63;94612.06;5106698;28;20028;-74
2023/10/11 00:33:44;;;;;;;4.60;2.30;;;;;;;12.65;71.25;94610.47;5106470;28;20027;-74
2023/10/11 00:36:10;;;;;;;7.97;2.50;;;;;;;12.63;71.38;94620.69;5106466;28;20035;-74
2023/10/11 00:38:48;;;;;;;6.45;2.83;;;;;;;12.62;72.37;94617.25;5106206;28;20241;-73
2023/10/11 00:41:20;;;;;;;5.90;3.08;;;;;;;12.57;72.82;94609.34;5087906;28;20024;-74
2023/10/11 00:43:49;;;;;;;6.68;3.35;;;;;;;12.56;72.67;94615.78;5106420;28;20196;-75
2023/10/11 00:46:19;;;;;;;5.75;2.63;;;;;;;12.54;72.78;94615.31;5106262;28;20019;-74
2023/10/11 00:51:46;;;;;;;7.05;2.90;;;;;;;12.48;73.42;94631.81;5061275;28;20111;-75
2023/10/11 00:54:15;;;;;;;6.45;3.17;;;;;;;12.43;73.43;94624.66;5105270;28;20069;-74
2023/10/11 00:56:44;;;;;;;13.23;3.08;;;;;;;12.44;73.18;94626.28;5106237;28;20314;-74
2023/10/11 00:59:14;;;;;;;7.13;2.38;;;;;;;12.41;72.84;94629.53;5106022;28;20027;-74
2023/10/11 01:01:42;;;;;;;16.10;3.70;;;;;;;12.37;73.34;94624.00;5106104;28;20027;-74
2023/10/11 01:04:09;;;;;;;9.98;4.15;;;;;;;12.31;73.55;94622.56;5104968;28;20156;-74
2023/10/11 01:06:34;;;;;;;6.13;3.05;;;;;;;12.33;73.64;94630.28;5105976;28;20032;-74
2023/10/11 01:09:00;;;;;;;6.55;3.67;;;;;;;12.26;74.13;94627.25;5105958;28;20035;-74
2023/10/11 01:11:27;;;;;;;6.72;3.20;;;;;;;12.22;74.32;94632.41;5105721;28;20020;-74
2023/10/11 01:13:53;;;;;;;5.90;3.17;;;;;;;12.22;74.58;94625.19;5105724;28;20024;-74
2023/10/11 01:16:28;;;;;;;5.57;3.08;;;;;;;12.22;74.64;94624.41;5105610;28;20030;-74
2023/10/11 01:18:54;;;;;;;6.50;2.83;;;;;;;12.21;74.67;94612.09;5105394;28;20095;-74
2023/10/11 01:21:19;;;;;;;5.35;2.35;;;;;;;12.20;74.52;94627.34;5104818;28;20051;-73
2023/10/11 01:23:45;;;;;;;4.97;2.78;;;;;;;12.23;74.39;94625.97;5105657;28;20036;-73
2023/10/11 01:26:10;;;;;;;5.32;2.22;;;;;;;12.24;74.35;94625.66;5087516;28;20024;-73
2023/10/11 01:28:40;;;;;;;6.13;3.03;;;;;;;12.29;74.96;94635.44;5105512;28;20043;-73
2023/10/11 01:31:10;;;;;;;9.57;2.80;;;;;;;12.30;74.48;94630.91;5105885;28;20020;-73
2023/10/11 01:33:43;;;;;;;5.43;2.88;;;;;;;12.30;74.23;94645.03;5105306;28;20084;-74
2023/10/11 01:36:10;;;;;;;7.72;3.40;;;;;;;12.31;74.10;94638.59;5105405;28;20039;-74
2023/10/11 01:38:49;;;;;;;4.82;2.63;;;;;;;12.34;73.99;94643.34;5104926;28;20044;-74
2023/10/11 01:41:28;;;;;;;5.85;2.33;;;;;;;12.37;73.70;94639.25;5105255;28;20031;-74
2023/10/11 01:43:55;;;;;;;4.93;2.70;;;;;;;12.37;73.79;94642.72;5105247;28;20019;-74
2023/10/11 01:46:35;;;;;;;7.68;2.90;;;;;;;12.38;73.86;94655.00;5086979;28;20020;-74
2023/10/11 01:49:01;;;;;;;5.55;2.72;;;;;;;12.41;74.01;94658.94;5105029;28;20333;-74
2023/10/11 01:51:27;;;;;;;8.70;3.45;;;;;;;12.43;74.21;94654.09;5105040;28;20301;-74
2023/10/11 01:54:01;;;;;;;6.05;2.80;;;;;;;12.48;74.10;94666.56;5105110;28;20031;-74
2023/10/11 01:56:27;;;;;;;5.72;2.78;;;;;;;12.50;74.24;94661.69;5086790;28;20031;-74
2023/10/11 01:59:00;;;;;;;5.75;2.72;;;;;;;12.55;73.89;94664.22;5104857;28;20019;-73
2023/10/11 02:01:30;;;;;;;6.35;2.60;;;;;;;12.57;73.28;94662.03;5104630;28;20024;-73
2023/10/11 02:04:00;;;;;;;9.48;2.80;;;;;;;12.59;72.39;94655.28;5104829;28;20024;-73
2023/10/11 02:06:31;;;;;;;4.40;2.13;;;;;;;12.58;72.36;94655.59;5104691;28;20214;-73
2023/10/11 02:08:57;;;;;;;6.28;2.63;;;;;;;12.56;72.67;94666.59;5104801;28;20028;-74
2023/10/11 02:11:25;;;;;;;6.50;3.13;;;;;;;12.55;72.43;94657.00;5086683;28;20028;-74
2023/10/11 02:13:51;;;;;;;5.55;2.65;;;;;;;12.57;72.55;94646.00;5104596;28;20024;-73
2023/10/11 02:16:17;;;;;;;9.40;2.42;;;;;;;12.57;72.57;94643.31;5103548;28;20038;-74
2023/10/11 02:18:43;;;;;;;5.65;3.25;;;;;;;12.57;72.71;94652.13;5104512;28;20061;-74
2023/10/11 02:21:08;;;;;;;9.23;2.95;;;;;;;12.55;72.56;94659.66;5104502;28;20024;-73
2023/10/11 02:23:39;;;;;;;6.38;2.92;;;;;;;12.54;72.67;94652.75;5104333;28;20016;-74
2023/10/11 02:26:12;;;;;;;3.42;2.20;;;;;;;12.48;72.74;94648.63;5103259;28;20230;-74
2023/10/11 02:28:41;;;;;;;7.70;2.88;;;;;;;12.44;72.84;94663.69;5104267;28;20020;-73
2023/10/11 02:31:07;;;;;;;4.65;2.70;;;;;;;12.38;72.93;94665.69;5085943;28;20020;-73
2023/10/11 02:33:33;;;;;;;18.98;3.17;;;;;;;12.33;73.13;94663.13;5104259;28;20023;-74
2023/10/11 02:36:09;;;;;;;7.00;2.70;;;;;;;12.31;73.32;94664.53;5104196;28;20031;-73
2023/10/11 02:38:47;;;;;;;14.38;3.20;;;;;;;12.25;73.43;94666.53;5104071;28;20234;-73
2023/10/11 02:41:20;;;;;;;6.90;2.88;;;;;;;12.20;73.57;94677.34;5103989;28;20322;-73
2023/10/11 02:43:49;;;;;;;10.45;3.35;;;;;;;12.12;73.62;94681.53;5104208;28;20027;-73
2023/10/11 02:46:23;;;;;;;8.23;3.28;;;;;;;12.08;73.62;94682.44;5104119;28;20031;-73
2023/10/11 02:49:06;;;;;;;5.80;2.80;;;;;;;12.01;73.91;94680.97;5103735;28;20024;-73
2023/10/11 02:51:34;;;;;;;10.52;3.17;;;;;;;11.97;74.05;94687.25;5103917;28;20024;-73
2023/10/11 02:54:04;;;;;;;5.75;3.08;;;;;;;11.92;74.55;94690.00;5103870;28;20050;-74
2023/10/11 02:56:46;;;;;;;8.40;3.17;;;;;;;11.84;74.68;94692.28;5103801;28;20024;-74
2023/10/11 02:59:25;;;;;;;6.32;2.92;;;;;;;11.72;74.91;94689.31;5103762;28;20139;-74
2023/10/11 03:02:01;;;;;;;6.97;3.30;;;;;;;11.60;75.52;94694.38;5103623;28;20032;-73
2023/10/11 03:04:40;;;;;;;5.43;3.05;;;;;;;11.47;75.93;94695.97;5103809;28;20032;-73
2023/10/11 03:07:13;;;;;;;5.60;3.08;;;;;;;11.38;76.53;94687.88;5103826;28;20043;-73
2023/10/11 03:09:40;;;;;;;6.38;3.40;;;;;;;11.36;76.64;94699.94;5103754;28;20318;-73
2023/10/11 03:12:18;;;;;;;6.28;3.03;;;;;;;11.28;77.04;94698.75;5103576;28;20015;-74
2023/10/11 03:14:47;;;;;;;7.82;3.50;;;;;;;11.14;77.95;94703.28;5102282;28;20032;-75
2023/10/11 03:17:15;;;;;;;6.05;3.33;;;;;;;11.03;78.76;94700.81;5103370;28;20253;-73
2023/10/11 03:19:45;;;;;;;11.13;4.10;;;;;;;10.91;79.60;94716.50;5085066;28;20028;-73
2023/10/11 03:22:21;;;;;;;9.25;4.07;;;;;;;10.86;80.26;94713.91;5103355;28;20031;-73
2023/10/11 03:24:54;;;;;;;8.70;4.07;;;;;;;10.77;80.88;94713.81;5103252;28;20020;-73
2023/10/11 03:27:27;;;;;;;9.10;4.00;;;;;;;10.73;81.28;94712.81;5103300;28;20219;-72
2023/10/11 03:29:53;;;;;;;10.38;5.05;;;;;;;10.71;81.64;94712.31;5103246;28;20219;-73
2023/10/11 03:32:19;;;;;;;10.60;4.50;;;;;;;10.71;81.82;94728.31;5103070;28;20023;-74
2023/10/11 03:34:45;;;;;;;12.02;4.47;;;;;;;10.73;81.68;94720.03;5103085;28;20069;-73
2023/10/11 03:37:17;;;;;;;8.45;4.57;;;;;;;10.71;81.90;94714.97;5085089;28;20031;-73
2023/10/11 03:39:44;;;;;;;10.77;4.70;;;;;;;10.73;82.14;94706.69;5102655;28;20040;-73
2023/10/11 03:44:37;;;;;;;9.52;4.90;;;;;;;10.76;82.01;94714.88;5102939;28;20016;-74
2023/10/11 03:47:09;;;;;;;11.43;4.95;;;;;;;10.78;81.83;94723.38;5103117;28;20125;-73
2023/10/11 03:49:56;;;;;;;13.13;4.90;;;;;;;10.79;82.03;94724.19;5102942;28;20314;-73
2023/10/11 03:52:30;;;;;;;10.15;5.13;;;;;;;10.78;81.90;94733.25;5102562;28;20039;-74
2023/10/11 03:55:09;;;;;;;12.63;5.40;;;;;;;10.77;82.02;94732.47;5102776;28;20032;-74
2023/10/11 03:57:41;;;;;;;10.10;4.75;;;;;;;10.78;81.83;94727.94;5102575;28;20091;-73
2023/10/11 04:00:29;;;;;;;;;;;;;;;10.82;81.66;94731.59;5103052;28;20028;-74
2023/10/11 04:03:02;;;;;;;10.25;5.07;;;;;;;10.74;81.97;94742.94;5102355;28;19936;-74
2023/10/11 04:05:33;;;;;;;14.95;5.15;;;;;;;10.71;82.04;94746.19;5102721;28;20028;-74
2023/10/11 04:08:01;;;;;;;15.75;5.03;;;;;;;10.70;82.39;94733.94;5102714;28;20243;-74
2023/10/11 04:10:38;;;;;;;17.30;5.40;;;;;;;10.68;82.36;94739.53;5102842;28;20016;-74
2023/10/11 04:13:08;;;;;;;14.35;5.80;;;;;;;10.71;82.30;94740.84;5102686;28;20016;-74
2023/10/11 04:15:34;;;;;;;8.55;5.28;;;;;;;10.74;81.84;94749.03;5102522;28;20311;-74
2023/10/11 04:18:05;;;;;;;12.57;5.72;;;;;;;10.77;82.28;94743.13;5102580;28;20034;-74
2023/10/11 04:20:33;;;;;;;16.27;6.60;;;;;;;10.82;82.09;94755.59;5102696;28;20055;-74
2023/10/11 04:23:10;;;;;;;15.07;6.00;;;;;;;10.86;82.11;94751.25;5102598;28;20028;-73
2023/10/11 04:25:38;;;;;;;8.90;5.35;;;;;;;10.90;81.90;94762.91;5102542;28;20323;-73
2023/10/11 04:28:05;;;;;;;15.85;5.43;;;;;;;10.92;81.80;94763.41;5102763;28;20020;-74
2023/10/11 04:30:44;;;;;;;15.70;5.75;;;;;;;10.97;81.81;94767.88;5102475;28;20019;-74
2023/10/11 04:33:20;;;;;;;15.95;6.82;;;;;;;11.00;81.81;94770.75;5102805;28;20019;-74
2023/10/11 04:35:55;;;;;;;13.98;5.80;;;;;;;11.03;81.88;94756.84;5102632;28;20028;-74
2023/10/11 04:38:21;;;;;;;13.05;6.28;;;;;;;11.09;82.07;94754.84;5102295;28;20111;-74
2023/10/11 04:40:51;;;;;;;11.48;5.97;;;;;;;11.11;81.87;94763.34;5102432;28;20023;-74
2023/10/11 04:43:29;;;;;;;11.80;6.00;;;;;;;11.15;82.05;94764.34;5102551;28;20031;-74
2023/10/11 04:45:59;;;;;;;10.13;5.55;;;;;;;11.24;81.87;94769.81;5102566;28;20249;-74
2023/10/11 04:48:29;;;;;;;14.98;6.15;;;;;;;11.33;81.72;94775.25;5102444;28;20024;-74
2023/10/11 04:51:08;;;;;;;19.20;5.60;;;;;;;11.41;81.48;94775.34;5102383;28;20024;-74
2023/10/11 04:53:56;;;;;;;9.77;5.53;;;;;;;11.51;81.18;94770.94;5102908;28;20035;-74
2023/10/11 04:57:07;;;;;;;12.40;6.53;;;;;;;11.59;81.18;94772.91;5105680;28;20043;-74
2023/10/11 05:02:02;;;;;;;18.67;5.82;;;;;;;11.75;80.80;94776.84;5106229;28;20081;-73
2023/10/11 05:04:34;;;;;;;14.60;6.38;;;;;;;11.83;80.27;94780.72;5106068;28;20039;-73
2023/10/11 05:07:07;;;;;;;17.48;5.95;;;;;;;11.87;79.66;94786.25;5105873;28;20036;-74
2023/10/11 05:09:39;;;;;;;19.33;6.40;;;;;;;11.87;79.22;94791.59;5105954;28;20091;-74
2023/10/11 05:12:19;;;;;;;10.63;5.88;;;;;;;11.85;79.36;94792.69;5105863;28;20047;-74
2023/10/11 05:28:07;;;;;;;13.15;6.00;;;;;;;11.99;79.15;94807.94;5105584;28;20375;-73
2023/10/11 05:30:34;;;;;;;13.65;6.50;;;;;;;12.01;79.14;94811.91;5105583;28;20024;-70
2023/10/11 05:52:08;;;;;;;15.05;6.00;;;;;;;12.72;77.05;94803.44;5105449;28;20047;-74
2023/10/11 05:54:35;;;;;;;21.63;6.75;;;;;;;12.91;76.75;94799.78;5104870;28;20016;-73
2023/10/11 05:57:03;;;;;;;16.15;6.25;;;;;;;13.07;75.46;94808.22;5105000;28;20051;-73
2023/10/11 05:59:35;;;;;;;13.50;5.35;;;;;;;13.20;75.05;94799.34;5104619;28;20427;-73
2023/10/11 06:02:07;;;;;;;24.67;7.30;;;;;;;13.22;74.06;94805.94;5104735;28;20031;-73
2023/10/11 06:04:39;;;;;;;32.47;6.83;;;;;;;13.30;74.50;94809.81;5104828;28;20095;-75
2023/10/11 06:07:11;;;;;;;28.77;7.15;;;;;;;13.36;75.11;94826.53;5104184;28;20020;-74
2023/10/11 06:09:43;;;;;;;23.40;6.18;;;;;;;13.33;74.56;94817.25;5104653;28;20057;-74
2023/10/11 06:12:22;;;;;;;22.98;6.70;;;;;;;13.27;73.19;94829.16;5104868;28;20031;-71
2023/10/11 06:14:57;;;;;;;19.30;6.97;;;;;;;13.23;72.83;94834.31;5104443;28;20058;-71
2023/10/11 06:17:33;;;;;;;14.27;6.28;;;;;;;13.14;73.10;94844.16;5104382;28;20019;-72
2023/10/11 06:20:17;;;;;;;25.65;6.97;;;;;;;13.07;73.56;94848.34;5104242;28;20035;-76
2023/10/11 06:22:43;;;;;;;15.77;7.35;;;;;;;12.93;73.23;94846.53;5104410;28;20020;-76
2023/10/11 06:25:13;;;;;;;13.32;5.95;;;;;;;12.85;72.40;94852.63;5086405;28;20062;-76
2023/10/11 06:30:19;;;;;;;34.45;8.00;;;;;;;12.74;72.62;94864.63;5104343;28;20075;-76
2023/10/11 06:32:44;;;;;;;13.35;4.45;;;;;;;12.68;72.46;94872.00;5104291;28;20031;-76
2023/10/11 06:35:23;;;;;;;16.65;5.80;;;;;;;12.61;72.47;94868.94;5105913;28;20028;-76
2023/10/11 06:37:52;;;;;;;11.63;5.32;;;;;;;12.56;71.85;94872.50;5103597;28;20036;-75
2023/10/11 06:40:18;;;;;;;24.52;6.88;;;;;;;12.58;71.46;94866.88;5102906;28;20058;-75
2023/10/11 06:42:43;;;;;;;21.83;6.20;;;;;;;12.60;71.58;94875.38;5102352;28;20227;-75
2023/10/11 06:45:16;;;;;;;22.50;7.55;;;;;;;12.64;72.78;94882.50;5102852;28;20043;-75
2023/10/11 06:47:42;;;;;;;22.60;7.55;;;;;;;12.68;73.43;94887.22;5103463;28;20223;-75
2023/10/11 06:50:11;;;;;;;15.98;7.43;;;;;;;12.72;73.76;94881.00;5103733;28;20086;-75
2023/10/11 06:52:44;;;;;;;17.45;7.50;;;;;;;12.71;74.34;94884.75;5103411;28;20072;-75
2023/10/11 06:55:17;;;;;;;14.32;7.53;;;;;;;12.73;74.48;94884.47;5103327;28;20035;-75
2023/10/11 06:57:45;;;;;;;26.35;7.28;;;;;;;12.74;74.82;94891.38;5102257;28;20038;-76
2023/10/11 07:00:23;;;;;;;23.00;7.55;;;;;;;12.79;74.50;94889.41;5101896;28;20024;-75
2023/10/11 07:02:54;;;;;;;20.52;7.55;;;;;;;12.79;74.33;94892.06;5101957;28;20135;-75
2023/10/11 07:05:21;;;;;;;16.70;7.53;;;;;;;12.86;74.19;94878.25;5100856;28;20028;-75
2023/10/11 07:07:52;;;;;;;15.90;6.65;;;;;;;12.95;72.90;94876.47;5082858;28;20024;-74
2023/10/11 07:10:28;;;;;;;12.93;6.20;;;;;;;12.94;71.68;94874.88;5100869;28;20027;-74
2023/10/11 07:13:05;;;;;;;17.65;6.07;;;;;;;13.02;71.77;94874.16;5100148;28;20069;-74
2023/10/11 07:15:37;;;;;;;21.75;5.30;;;;;;;13.13;70.42;94873.94;5101605;28;20024;-74
2023/10/11 07:18:10;;;;;;;18.77;5.10;;;;;;;13.27;69.01;94860.47;5100614;28;20028;-74
2023/10/11 07:21:07;;;;;;;16.83;4.55;;;;;;;13.42;67.91;94852.88;5101702;28;20030;-74
2023/10/11 07:23:46;;;;;;;11.85;4.75;;;;;;;13.60;67.56;94858.34;5103482;28;20039;-74
2023/10/11 07:26:48;;;;;;;10.02;5.03;;;;;;;13.76;66.72;94848.00;5103355;28;20070;-74
2023/10/11 07:29:12;;;;;;;10.93;3.92;;;;;;;13.94;65.97;94846.19;5103155;28;20024;-74
2023/10/11 07:31:48;;;;;;;17.08;4.68;;;;;;;14.08;65.62;94852.22;5103507;28;20024;-74
2023/10/11 07:34:17;;;;;;;9.80;4.40;;;;;;;14.19;65.22;94840.13;5085260;28;20027;-74
2023/10/11 07:36:43;;;;;;;25.20;4.75;;;;;;;14.30;64.46;94848.66;5103155;28;20024;-74
2023/10/11 07:39:20;;;;;;;14.93;5.28;;;;;;;14.41;64.06;94841.09;5103150;28;20075;-74
2023/10/11 07:41:51;;;;;;;14.90;4.35;;;;;;;14.53;62.77;94835.13;5102919;28;20024;-74
2023/10/11 07:44:20;;;;;;;12.70;4.25;;;;;;;14.63;62.64;94840.22;5102836;28;20230;-74
2023/10/11 07:46:47;;;;;;;8.98;4.22;;;;;;;14.75;62.28;94842.28;5102873;28;20024;-75
2023/10/11 07:49:24;;;;;;;21.15;4.40;;;;;;;14.84;61.70;94861.88;5103154;28;20026;-74
2023/10/11 07:51:53;;;;;;;9.50;3.72;;;;;;;14.85;61.03;94858.88;5102972;28;20024;-74
2023/10/11 07:54:21;;;;;;;21.38;5.35;;;;;;;14.86;60.61;94865.03;5102884;28;20024;-74
2023/10/11 07:56:55;;;;;;;17.85;4.75;;;;;;;14.89;60.44;94869.78;5102643;28;20043;-74
2023/10/11 07:59:26;;;;;;;12.38;4.68;;;;;;;14.92;60.46;94868.34;5102800;28;20066;-74
2023/10/11 08:01:56;;;;;;;16.05;4.53;;;;;;;14.91;60.17;94866.78;5103033;28;20222;-75
2023/10/11 08:04:27;;;;;;;17.00;4.63;;;;;;;14.98;60.24;94875.94;5102970;28;20083;-75
2023/10/11 08:06:59;;;;;;;12.20;4.78;;;;;;;14.97;60.36;94871.66;5102938;28;20024;-75
2023/10/11 08:09:46;;;;;;;7.72;3.90;;;;;;;15.03;59.98;94873.09;5102809;28;20020;-74
2023/10/11 08:12:16;;;;;;;14.02;4.38;;;;;;;15.12;60.18;94867.72;5103055;28;20042;-76
2023/10/11 08:14:45;;;;;;;9.95;4.25;;;;;;;15.17;60.16;94870.25;5102962;28;20214;-74
2023/10/11 08:17:16;;;;;;;9.90;4.07;;;;;;;15.19;58.83;94883.38;5102884;28;20047;-74
2023/10/11 08:19:46;;;;;;;8.02;4.18;;;;;;;15.26;59.17;94880.97;5102455;28;20028;-75
2023/10/11 08:22:16;;;;;;;10.20;4.00;;;;;;;15.38;59.19;94886.50;5102785;28;20213;-74
2023/10/11 08:24:50;;;;;;;12.50;4.28;;;;;;;15.44;58.89;94889.81;5102816;28;20036;-74
2023/10/11 08:27:27;;;;;;;11.95;4.13;;;;;;;15.50;58.17;94887.75;5102684;28;20215;-74
2023/10/11 08:30:07;;;;;;;15.27;4.18;;;;;;;15.58;57.70;94879.66;5105174;28;20012;-74
2023/10/11 08:32:37;;;;;;;12.23;5.20;;;;;;;15.60;57.80;94887.41;5106650;28;20095;-74
2023/10/11 08:35:06;;;;;;;11.30;4.78;;;;;;;15.67;57.42;94882.31;5106632;28;20095;-76
2023/10/11 08:37:32;;;;;;;17.70;5.57;;;;;;;15.77;57.06;94876.66;5106270;28;20246;-75
2023/10/11 08:39:58;;;;;;;11.60;4.70;;;;;;;15.84;57.20;94879.63;5106487;28;20072;-74
2023/10/11 08:42:30;;;;;;;8.90;4.82;;;;;;;15.97;57.32;94879.75;5106440;28;20023;-74
2023/10/11 08:44:59;;;;;;;14.75;5.18;;;;;;;16.09;57.01;94876.38;5106469;28;20039;-74
2023/10/11 08:47:24;;;;;;;15.68;5.38;;;;;;;16.18;56.33;94871.75;5106338;28;20091;-74
2023/10/11 08:49:50;;;;;;;11.45;4.68;;;;;;;16.19;56.66;94874.13;5088239;28;20311;-75
2023/10/11 08:52:24;;;;;;;13.30;5.75;;;;;;;16.28;56.74;94867.91;5087995;28;20032;-74
2023/10/11 08:54:50;;;;;;;6.57;3.95;;;;;;;16.38;55.96;94867.53;5106201;28;20324;-74
2023/10/11 08:57:23;;;;;;;8.85;4.03;;;;;;;16.48;55.01;94867.16;5106079;28;20028;-74
2023/10/11 08:59:56;;;;;;;21.48;4.82;;;;;;;16.54;55.19;94868.56;5105990;28;20268;-74
2023/10/11 09:02:33;;;;;;;11.55;4.97;;;;;;;16.64;55.22;94876.25;5106092;28;20028;-75
2023/10/11 09:05:06;;;;;;;17.17;5.10;;;;;;;16.69;55.26;94875.28;5105900;28;20023;-75
2023/10/11 09:07:37;;;;;;;12.55;5.15;;;;;;;16.79;55.22;94876.78;5105817;28;20222;-74
2023/10/11 09:10:32;;;;;;;15.27;4.60;;;;;;;16.90;54.46;94872.63;5105859;28;20429;-74
2023/10/11 09:12:59;;;;;;;23.63;5.07;;;;;;;16.98;53.72;94874.47;5105930;28;20032;-74
2023/10/11 09:15:40;;;;;;;12.95;4.82;;;;;;;17.04;53.89;94873.16;5105774;28;20032;-75
2023/10/11 09:18:16;;;;;;;9.95;4.43;;;;;;;17.16;52.99;94882.41;5105855;28;20096;-74
2023/10/11 09:23:46;;;;;;;20.05;4.72;;;;;;;17.23;52.89;94885.34;5105711;28;20058;-74
2023/10/11 09:26:13;;;;;;;17.80;4.90;;;;;;;17.37;53.08;94874.31;5105900;28;20047;-75
2023/10/11 09:28:41;;;;;;;8.00;4.55;;;;;;;17.47;51.84;94875.81;5105545;28;20318;-75
2023/10/11 09:31:19;;;;;;;11.38;4.60;;;;;;;17.50;51.74;94870.53;5105670;28;20024;-74
2023/10/11 09:33:53;;;;;;;7.35;4.35;;;;;;;17.51;51.99;94865.94;5105372;28;20106;-75
2023/10/11 09:36:20;;;;;;;12.05;4.00;;;;;;;17.55;52.53;94864.94;5105392;28;20023;-74
2023/10/11 09:38:55;;;;;;;13.20;4.50;;;;;;;17.64;51.82;94860.22;5105231;28;20301;-74
2023/10/11 09:41:38;;;;;;;15.35;3.90;;;;;;;17.67;51.94;94872.28;5104262;28;20061;-75
2023/10/11 09:44:05;;;;;;;7.63;4.20;;;;;;;17.72;51.36;94861.25;5105306;28;20034;-74
2023/10/11 09:46:33;;;;;;;12.65;4.90;;;;;;;17.76;50.30;94859.47;5105068;28;20020;-75
2023/10/11 09:49:00;;;;;;;9.73;4.53;;;;;;;17.79;50.74;94858.81;5105264;28;20020;-74
2023/10/11 09:51:26;;;;;;;10.35;4.03;;;;;;;17.80;51.43;94857.69;5105157;28;20107;-75
2023/10/11 09:53:53;;;;;;;6.53;3.65;;;;;;;17.93;50.89;94855.03;5105256;28;20024;-75
2023/10/11 09:56:40;;;;;;;12.75;3.97;;;;;;;18.02;51.29;94855.75;5105292;28;20211;-74
2023/10/11 09:59:27;;;;;;;7.53;4.30;;;;;;;18.11;49.97;94853.72;5105095;28;20086;-75
2023/10/11 10:01:56;;;;;;;11.52;4.57;;;;;;;18.18;49.97;94843.16;5104981;28;20028;-75
2023/10/11 10:04:49;;;;;;;12.27;3.97;;;;;;;18.28;50.04;94839.22;5105149;28;20175;-75
2023/10/11 10:07:25;;;;;;;15.80;4.57;;;;;;;18.37;49.77;94833.69;5104747;28;20084;-75
2023/10/11 10:10:05;;;;;;;14.07;4.30;;;;;;;18.52;49.40;94845.72;5104686;28;20427;-75
2023/10/11 10:12:43;;;;;;;13.15;3.88;;;;;;;18.63;49.42;94836.03;5104908;28;20016;-75
2023/10/11 10:15:14;;;;;;;18.45;4.90;;;;;;;18.73;49.15;94835.56;5104706;28;20028;-75
2023/10/11 10:18:00;;;;;;;8.02;3.97;;;;;;;18.80;48.12;94825.00;5104877;28;20020;-75
2023/10/11 10:20:32;;;;;;;7.72;3.95;;;;;;;18.87;48.16;94813.63;5104548;28;20024;-75
2023/10/11 10:23:16;;;;;;;;;;;;;;;18.92;47.68;94818.78;5104976;28;20028;-74
2023/10/11 10:25:48;;;;;;;11.65;3.92;;;;;;;18.94;47.83;94818.44;5104727;28;19934;-75
2023/10/11 10:28:45;;;;;;;11.52;4.30;;;;;;;18.96;46.60;94808.84;5104519;28;20089;-75
2023/10/11 10:31:21;;;;;;;9.48;3.97;;;;;;;18.93;46.71;94804.16;5104534;28;20031;-75
2023/10/11 10:34:05;;;;;;;14.52;3.97;;;;;;;18.99;47.64;94810.88;5104166;28;20012;-75
2023/10/11 10:36:31;;;;;;;7.57;4.07;;;;;;;19.13;46.96;94810.50;5104041;28;20043;-75
2023/10/11 10:38:59;;;;;;;24.10;5.22;;;;;;;19.28;47.07;94805.50;5085953;28;20365;-74
2023/10/11 10:41:26;;;;;;;8.93;3.28;;;;;;;19.35;45.64;94789.44;5085895;28;20299;-74
2023/10/11 10:44:05;;;;;;;10.57;3.50;;;;;;;19.39;45.94;94796.50;5103938;28;20036;-75
2023/10/11 10:46:32;;;;;;;6.97;3.90;;;;;;;19.47;46.30;94796.72;5103703;28;20247;-75
2023/10/11 10:48:58;;;;;;;9.75;3.92;;;;;;;19.48;44.92;94793.66;5103893;28;20134;-75
2023/10/11 10:51:25;;;;;;;10.20;4.00;;;;;;;19.45;44.84;94787.00;5103769;28;20044;-75
2023/10/11 10:53:53;;;;;;;6.13;3.72;;;;;;;19.44;45.13;94774.63;5103857;28;20027;-75
2023/10/11 10:56:21;;;;;;;11.38;3.83;;;;;;;19.47;45.03;94765.03;5104156;28;20255;-81
2023/10/11 10:58:47;;;;;;;12.07;3.47;;;;;;;19.47;44.51;94769.66;5103818;28;20023;-76
2023/10/11 11:01:12;;;;;;;11.07;4.38;;;;;;;19.53;45.72;94779.88;5103676;28;20035;-77
2023/10/11 11:03:41;;;;;;;8.75;3.70;;;;;;;19.71;45.58;94774.16;5104000;28;20274;-74
2023/10/11 11:06:11;;;;;;;6.15;3.03;;;;;;;19.91;44.84;94777.75;5103819;28;20317;-74
2023/10/11 11:08:39;;;;;;;8.52;4.00;;;;;;;20.14;44.67;94767.06;5103499;28;20322;-74
2023/10/11 11:11:25;;;;;;;7.75;3.85;;;;;;;20.33;43.65;94766.34;5103414;28;20043;-75
2023/10/11 11:13:52;;;;;;;10.45;3.63;;;;;;;20.48;42.95;94768.22;5102218;28;20217;-77
2023/10/11 11:16:30;;;;;;;5.00;3.03;;;;;;;20.64;43.55;94777.13;5103221;28;20038;-75
2023/10/11 11:19:01;;;;;;;7.05;3.30;;;;;;;20.81;41.83;94767.78;5103556;28;20028;-76
2023/10/11 11:21:29;;;;;;;10.00;3.50;;;;;;;20.89;41.17;94767.94;5103370;28;20372;-76
2023/10/11 11:24:14;;;;;;;11.65;3.45;;;;;;;20.89;40.99;94766.00;5103416;28;20265;-76
2023/10/11 11:26:40;;;;;;;10.10;2.72;;;;;;;21.01;39.74;94765.84;5103451;28;20016;-75
2023/10/11 11:29:10;;;;;;;8.02;3.00;;;;;;;21.03;39.57;94766.28;5103226;28;20068;-76
2023/10/11 11:31:51;;;;;;;11.50;3.08;;;;;;;20.98;40.03;94757.66;5103386;28;20035;-78
2023/10/11 11:34:26;;;;;;;6.25;2.85;;;;;;;20.98;39.69;94761.13;5103252;28;20020;-78
2023/10/11 11:36:59;;;;;;;6.55;2.95;;;;;;;20.99;39.46;94757.31;5102968;28;20222;-75
2023/10/11 11:39:27;;;;;;;12.82;2.92;;;;;;;20.98;39.64;94761.13;5102787;28;20353;-76
2023/10/11 11:41:58;;;;;;;10.68;3.00;;;;;;;21.09;41.31;94763.31;5102992;28;20024;-75
2023/10/11 11:44:27;;;;;;;8.63;4.47;;;;;;;21.28;40.50;94752.41;5103179;28;20051;-75
2023/10/11 11:46:54;;;;;;;4.68;2.80;;;;;;;21.39;40.00;94753.41;5103011;28;20262;-76
2023/10/11 11:49:21;;;;;;;9.63;3.17;;;;;;;21.50;39.48;94744.72;5103078;28;20028;-76
2023/10/11 11:51:51;;;;;;;10.32;3.03;;;;;;;21.61;39.42;94745.66;5102846;28;20020;-76
2023/10/11 11:54:20;;;;;;;6.75;2.63;;;;;;;21.73;39.40;94742.75;5102935;28;20020;-76
2023/10/11 11:56:47;;;;;;;13.25;4.13;;;;;;;21.83;38.74;94741.38;5102883;28;20351;-76
2023/10/11 11:59:18;;;;;;;9.85;3.00;;;;;;;21.94;38.85;94746.97;5102880;28;20019;-76
2023/10/11 12:01:53;;;;;;;5.75;2.78;;;;;;;22.07;38.94;94737.47;5102760;28;20022;-76
2023/10/11 12:04:20;;;;;;;6.05;2.88;;;;;;;22.18;38.10;94737.63;5084450;28;20266;-76
2023/10/11 12:06:53;;;;;;;16.17;3.22;;;;;;;22.29;37.83;94741.34;5103408;28;20048;-75
2023/10/11 12:09:22;;;;;;;9.70;2.47;;;;;;;22.30;36.28;94737.44;5085007;28;20027;-75
2023/10/11 12:11:53;;;;;;;4.43;2.22;;;;;;;22.34;36.84;94734.78;5102186;28;20032;-76
2023/10/11 12:14:23;;;;;;;6.27;2.70;;;;;;;22.41;36.03;94724.03;5086952;28;20178;-75
2023/10/11 12:17:09;;;;;;;9.60;3.25;;;;;;;22.49;36.17;94730.34;5105130;28;20278;-76
2023/10/11 12:19:38;;;;;;;4.03;2.25;;;;;;;22.58;36.11;94736.28;5083433;28;20070;-77
2023/10/11 12:22:05;;;;;;;4.13;2.47;;;;;;;22.66;36.47;94729.00;5101309;28;20027;-76
2023/10/11 12:24:31;;;;;;;4.32;2.17;;;;;;;22.73;35.59;94729.88;5103001;28;20023;-76
2023/10/11 12:26:59;;;;;;;7.85;2.47;;;;;;;22.74;34.92;94727.94;5102968;28;20031;-76
2023/10/11 12:29:26;;;;;;;8.00;2.70;;;;;;;22.77;35.75;94730.69;5102867;28;20047;-76
2023/10/11 12:31:55;;;;;;;6.18;2.45;;;;;;;22.89;36.26;94726.94;5102684;28;20028;-75
2023/10/11 12:34:24;;;;;;;15.07;2.40;;;;;;;23.06;36.03;94730.28;5102609;28;20050;-76
2023/10/11 12:36:53;;;;;;;9.18;2.33;;;;;;;23.14;34.99;94724.56;5084441;28;20103;-76
2023/10/11 12:39:24;;;;;;;6.05;2.50;;;;;;;23.36;34.65;94724.75;5102298;28;20077;-75
2023/10/11 12:41:51;;;;;;;10.25;2.78;;;;;;;23.60;33.95;94723.44;5102397;28;20031;-75